sensor_id;sensor_type;location;lat;lon;timestamp;P1;durP1;ratioP1;P2;durP2;ratioP2
4232;SDS011;2130;48.472;11.934;2024-01-15T00:00:11;22.13;;;4.93;;
4232;SDS011;2130;48.472;11.934;2024-01-15T00:02:41;23.43;;;3.53;;
4232;SDS011;2130;48.472;11.934;2024-01-15T00:05:10;22.23;;;5.40;;
4232;SDS011;2130;48.472;11.934;2024-01-15T00:07:45;21.60;;;4.33;;
4232;SDS011;2130;48.472;11.934;2024-01-15T00:10:13;23.60;;;3.87;;
4232;SDS011;2130;48.472;11.934;2024-01-15T00:12:41;21.13;;;3.83;;
4232;SDS011;2130;48.472;11.934;2024-01-15T00:15:11;25.83;;;2.80;;
4232;SDS011;2130;48.472;11.934;2024-01-15T00:17:40;19.57;;;2.20;;
4232;SDS011;2130;48.472;11.934;2024-01-15T00:20:10;20.13;;;2.53;;
4232;SDS011;2130;48.472;11.934;2024-01-15T00:22:40;20.10;;;2.97;;
4232;SDS011;2130;48.472;11.934;2024-01-15T00:25:08;21.50;;;3.53;;
4232;SDS011;2130;48.472;11.934;2024-01-15T00:27:37;20.10;;;2.60;;
4232;SDS011;2130;48.472;11.934;2024-01-15T00:30:06;16.50;;;3.00;;
4232;SDS011;2130;48.472;11.934;2024-01-15T00:32:35;19.50;;;2.67;;
4232;SDS011;2130;48.472;11.934;2024-01-15T00:35:05;22.13;;;3.87;;
4232;SDS011;2130;48.472;11.934;2024-01-15T00:37:33;20.70;;;3.10;;
4232;SDS011;2130;48.472;11.934;2024-01-15T00:40:01;18.50;;;2.10;;
4232;SDS011;2130;48.472;11.934;2024-01-15T00:42:29;22.40;;;2.10;;
4232;SDS011;2130;48.472;11.934;2024-01-15T00:44:57;18.00;;;2.50;;
4232;SDS011;2130;48.472;11.934;2024-01-15T00:47:26;17.40;;;2.90;;
4232;SDS011;2130;48.472;11.934;2024-01-15T00:49:56;20.47;;;3.10;;
4232;SDS011;2130;48.472;11.934;2024-01-15T00:52:26;19.20;;;2.80;;
4232;SDS011;2130;48.472;11.934;2024-01-15T00:54:54;21.23;;;3.53;;
4232;SDS011;2130;48.472;11.934;2024-01-15T00:57:23;18.90;;;2.57;;
4232;SDS011;2130;48.472;11.934;2024-01-15T00:59:51;19.23;;;2.83;;
4232;SDS011;2130;48.472;11.934;2024-01-15T01:02:19;20.70;;;4.20;;
4232;SDS011;2130;48.472;11.934;2024-01-15T01:04:47;18.40;;;2.20;;
4232;SDS011;2130;48.472;11.934;2024-01-15T01:07:18;18.40;;;2.40;;
4232;SDS011;2130;48.472;11.934;2024-01-15T01:09:47;18.60;;;2.43;;
4232;SDS011;2130;48.472;11.934;2024-01-15T01:12:16;24.83;;;3.73;;
4232;SDS011;2130;48.472;11.934;2024-01-15T01:14:44;19.27;;;3.00;;
4232;SDS011;2130;48.472;11.934;2024-01-15T01:17:12;20.17;;;3.90;;
4232;SDS011;2130;48.472;11.934;2024-01-15T01:19:40;16.57;;;3.27;;
4232;SDS011;2130;48.472;11.934;2024-01-15T01:22:09;19.80;;;2.97;;
4232;SDS011;2130;48.472;11.934;2024-01-15T01:24:37;19.00;;;2.77;;
4232;SDS011;2130;48.472;11.934;2024-01-15T01:27:09;20.23;;;3.53;;
4232;SDS011;2130;48.472;11.934;2024-01-15T01:29:37;18.57;;;2.27;;
4232;SDS011;2130;48.472;11.934;2024-01-15T01:32:08;18.83;;;2.20;;
4232;SDS011;2130;48.472;11.934;2024-01-15T01:34:39;19.30;;;3.23;;
4232;SDS011;2130;48.472;11.934;2024-01-15T01:37:09;21.40;;;3.07;;
4232;SDS011;2130;48.472;11.934;2024-01-15T01:39:40;19.90;;;2.87;;
4232;SDS011;2130;48.472;11.934;2024-01-15T01:42:10;19.43;;;3.37;;
4232;SDS011;2130;48.472;11.934;2024-01-15T01:44:39;19.10;;;3.10;;
4232;SDS011;2130;48.472;11.934;2024-01-15T01:47:07;27.73;;;4.03;;
4232;SDS011;2130;48.472;11.934;2024-01-15T01:49:36;19.60;;;3.80;;
4232;SDS011;2130;48.472;11.934;2024-01-15T01:52:12;21.80;;;4.50;;
4232;SDS011;2130;48.472;11.934;2024-01-15T01:54:42;19.70;;;2.97;;
4232;SDS011;2130;48.472;11.934;2024-01-15T01:57:11;24.60;;;3.10;;
4232;SDS011;2130;48.472;11.934;2024-01-15T01:59:40;19.93;;;3.30;;
4232;SDS011;2130;48.472;11.934;2024-01-15T02:02:08;18.43;;;2.87;;
4232;SDS011;2130;48.472;11.934;2024-01-15T02:04:36;23.10;;;3.60;;
4232;SDS011;2130;48.472;11.934;2024-01-15T02:07:07;19.90;;;3.23;;
4232;SDS011;2130;48.472;11.934;2024-01-15T02:09:36;19.60;;;3.13;;
4232;SDS011;2130;48.472;11.934;2024-01-15T02:12:05;21.03;;;3.53;;
4232;SDS011;2130;48.472;11.934;2024-01-15T02:14:37;16.73;;;2.57;;
4232;SDS011;2130;48.472;11.934;2024-01-15T02:17:06;19.53;;;3.40;;
4232;SDS011;2130;48.472;11.934;2024-01-15T02:19:35;20.77;;;3.67;;
4232;SDS011;2130;48.472;11.934;2024-01-15T02:22:03;20.17;;;2.83;;
4232;SDS011;2130;48.472;11.934;2024-01-15T02:24:33;18.57;;;3.70;;
4232;SDS011;2130;48.472;11.934;2024-01-15T02:27:01;23.60;;;4.43;;
4232;SDS011;2130;48.472;11.934;2024-01-15T02:29:30;17.00;;;1.90;;
4232;SDS011;2130;48.472;11.934;2024-01-15T02:31:58;18.93;;;2.80;;
4232;SDS011;2130;48.472;11.934;2024-01-15T02:34:31;20.93;;;3.90;;
4232;SDS011;2130;48.472;11.934;2024-01-15T02:36:59;19.87;;;3.60;;
4232;SDS011;2130;48.472;11.934;2024-01-15T02:39:28;23.30;;;3.80;;
4232;SDS011;2130;48.472;11.934;2024-01-15T02:41:58;20.40;;;3.30;;
4232;SDS011;2130;48.472;11.934;2024-01-15T02:44:28;19.40;;;2.70;;
4232;SDS011;2130;48.472;11.934;2024-01-15T02:46:56;21.87;;;3.90;;
4232;SDS011;2130;48.472;11.934;2024-01-15T02:49:24;18.37;;;2.97;;
4232;SDS011;2130;48.472;11.934;2024-01-15T02:51:52;19.70;;;2.70;;
4232;SDS011;2130;48.472;11.934;2024-01-15T02:54:21;19.00;;;2.30;;
4232;SDS011;2130;48.472;11.934;2024-01-15T02:56:49;18.77;;;2.33;;
4232;SDS011;2130;48.472;11.934;2024-01-15T02:59:19;21.63;;;3.00;;
4232;SDS011;2130;48.472;11.934;2024-01-15T03:01:47;20.33;;;2.87;;
4232;SDS011;2130;48.472;11.934;2024-01-15T03:04:15;19.43;;;2.90;;
4232;SDS011;2130;48.472;11.934;2024-01-15T03:06:44;18.67;;;2.37;;
4232;SDS011;2130;48.472;11.934;2024-01-15T03:09:12;18.40;;;2.80;;
4232;SDS011;2130;48.472;11.934;2024-01-15T03:11:40;20.67;;;3.10;;
4232;SDS011;2130;48.472;11.934;2024-01-15T03:14:09;19.33;;;2.33;;
4232;SDS011;2130;48.472;11.934;2024-01-15T03:16:38;19.43;;;2.90;;
4232;SDS011;2130;48.472;11.934;2024-01-15T03:19:07;18.70;;;2.73;;
4232;SDS011;2130;48.472;11.934;2024-01-15T03:21:35;22.17;;;3.60;;
4232;SDS011;2130;48.472;11.934;2024-01-15T03:24:03;17.70;;;1.90;;
4232;SDS011;2130;48.472;11.934;2024-01-15T03:26:32;20.57;;;2.63;;
4232;SDS011;2130;48.472;11.934;2024-01-15T03:29:00;23.37;;;3.13;;
4232;SDS011;2130;48.472;11.934;2024-01-15T03:31:28;23.03;;;2.73;;
4232;SDS011;2130;48.472;11.934;2024-01-15T03:33:58;18.50;;;2.70;;
4232;SDS011;2130;48.472;11.934;2024-01-15T03:36:26;19.17;;;2.23;;
4232;SDS011;2130;48.472;11.934;2024-01-15T03:38:55;20.70;;;2.37;;
4232;SDS011;2130;48.472;11.934;2024-01-15T03:41:23;18.73;;;3.00;;
4232;SDS011;2130;48.472;11.934;2024-01-15T03:43:51;17.37;;;2.00;;
4232;SDS011;2130;48.472;11.934;2024-01-15T03:46:20;20.77;;;2.60;;
4232;SDS011;2130;48.472;11.934;2024-01-15T03:48:48;18.70;;;2.23;;
4232;SDS011;2130;48.472;11.934;2024-01-15T03:51:18;19.10;;;3.03;;
4232;SDS011;2130;48.472;11.934;2024-01-15T03:53:46;16.77;;;1.80;;
4232;SDS011;2130;48.472;11.934;2024-01-15T03:56:14;18.10;;;2.60;;
4232;SDS011;2130;48.472;11.934;2024-01-15T03:58:42;20.50;;;3.33;;
4232;SDS011;2130;48.472;11.934;2024-01-15T04:01:10;18.50;;;1.93;;
4232;SDS011;2130;48.472;11.934;2024-01-15T04:03:39;18.03;;;2.03;;
4232;SDS011;2130;48.472;11.934;2024-01-15T04:06:07;18.90;;;2.47;;
4232;SDS011;2130;48.472;11.934;2024-01-15T04:08:36;17.53;;;2.03;;
4232;SDS011;2130;48.472;11.934;2024-01-15T04:11:04;18.43;;;3.10;;
4232;SDS011;2130;48.472;11.934;2024-01-15T04:13:33;19.67;;;2.23;;
4232;SDS011;2130;48.472;11.934;2024-01-15T04:16:01;23.90;;;2.40;;
4232;SDS011;2130;48.472;11.934;2024-01-15T04:18:29;18.40;;;3.20;;
4232;SDS011;2130;48.472;11.934;2024-01-15T04:20:57;18.37;;;1.83;;
4232;SDS011;2130;48.472;11.934;2024-01-15T04:23:28;18.67;;;2.70;;
4232;SDS011;2130;48.472;11.934;2024-01-15T04:25:58;18.10;;;1.70;;
4232;SDS011;2130;48.472;11.934;2024-01-15T04:28:26;18.30;;;2.57;;
4232;SDS011;2130;48.472;11.934;2024-01-15T04:30:54;18.37;;;1.90;;
4232;SDS011;2130;48.472;11.934;2024-01-15T04:33:22;17.83;;;2.17;;
4232;SDS011;2130;48.472;11.934;2024-01-15T04:35:51;17.90;;;1.80;;
4232;SDS011;2130;48.472;11.934;2024-01-15T04:38:22;21.10;;;2.37;;
4232;SDS011;2130;48.472;11.934;2024-01-15T04:40:50;18.77;;;1.80;;
4232;SDS011;2130;48.472;11.934;2024-01-15T04:43:24;19.80;;;1.80;;
4232;SDS011;2130;48.472;11.934;2024-01-15T04:45:52;19.87;;;3.03;;
4232;SDS011;2130;48.472;11.934;2024-01-15T04:48:20;17.10;;;1.93;;
4232;SDS011;2130;48.472;11.934;2024-01-15T04:50:49;19.80;;;2.50;;
4232;SDS011;2130;48.472;11.934;2024-01-15T04:53:18;19.30;;;1.93;;
4232;SDS011;2130;48.472;11.934;2024-01-15T04:55:46;17.90;;;2.00;;
4232;SDS011;2130;48.472;11.934;2024-01-15T04:58:14;19.43;;;2.60;;
4232;SDS011;2130;48.472;11.934;2024-01-15T05:00:43;18.33;;;2.13;;
4232;SDS011;2130;48.472;11.934;2024-01-15T05:03:11;18.10;;;1.97;;
4232;SDS011;2130;48.472;11.934;2024-01-15T05:05:45;18.90;;;2.17;;
4232;SDS011;2130;48.472;11.934;2024-01-15T05:08:15;17.10;;;2.17;;
4232;SDS011;2130;48.472;11.934;2024-01-15T05:10:45;17.83;;;2.13;;
4232;SDS011;2130;48.472;11.934;2024-01-15T05:13:15;24.73;;;1.83;;
4232;SDS011;2130;48.472;11.934;2024-01-15T05:15:44;19.03;;;2.00;;
4232;SDS011;2130;48.472;11.934;2024-01-15T05:18:12;17.30;;;1.53;;
4232;SDS011;2130;48.472;11.934;2024-01-15T05:20:41;18.40;;;2.60;;
4232;SDS011;2130;48.472;11.934;2024-01-15T05:23:09;18.67;;;2.37;;
4232;SDS011;2130;48.472;11.934;2024-01-15T05:25:38;20.30;;;2.27;;
4232;SDS011;2130;48.472;11.934;2024-01-15T05:28:06;18.43;;;2.23;;
4232;SDS011;2130;48.472;11.934;2024-01-15T05:30:34;18.60;;;2.20;;
4232;SDS011;2130;48.472;11.934;2024-01-15T05:33:05;17.90;;;1.80;;
4232;SDS011;2130;48.472;11.934;2024-01-15T05:35:36;17.50;;;1.67;;
4232;SDS011;2130;48.472;11.934;2024-01-15T05:38:05;19.50;;;2.37;;
4232;SDS011;2130;48.472;11.934;2024-01-15T05:40:33;17.30;;;1.43;;
4232;SDS011;2130;48.472;11.934;2024-01-15T05:43:03;21.70;;;1.90;;
4232;SDS011;2130;48.472;11.934;2024-01-15T05:45:33;20.53;;;2.40;;
4232;SDS011;2130;48.472;11.934;2024-01-15T05:48:02;17.50;;;2.30;;
4232;SDS011;2130;48.472;11.934;2024-01-15T05:50:35;18.13;;;1.90;;
4232;SDS011;2130;48.472;11.934;2024-01-15T05:53:05;18.30;;;1.93;;
4232;SDS011;2130;48.472;11.934;2024-01-15T05:55:34;17.10;;;1.63;;
4232;SDS011;2130;48.472;11.934;2024-01-15T05:58:04;20.43;;;2.17;;
4232;SDS011;2130;48.472;11.934;2024-01-15T06:00:35;18.20;;;2.10;;
4232;SDS011;2130;48.472;11.934;2024-01-15T06:03:07;17.93;;;1.93;;
4232;SDS011;2130;48.472;11.934;2024-01-15T06:05:39;18.73;;;1.90;;
4232;SDS011;2130;48.472;11.934;2024-01-15T06:08:07;16.97;;;2.00;;
4232;SDS011;2130;48.472;11.934;2024-01-15T06:10:42;17.77;;;1.67;;
4232;SDS011;2130;48.472;11.934;2024-01-15T06:13:10;20.53;;;1.90;;
4232;SDS011;2130;48.472;11.934;2024-01-15T06:15:38;17.33;;;1.70;;
4232;SDS011;2130;48.472;11.934;2024-01-15T06:18:06;17.53;;;1.73;;
4232;SDS011;2130;48.472;11.934;2024-01-15T06:20:35;21.93;;;2.30;;
4232;SDS011;2130;48.472;11.934;2024-01-15T06:23:05;21.57;;;2.40;;
4232;SDS011;2130;48.472;11.934;2024-01-15T06:25:33;17.07;;;1.43;;
4232;SDS011;2130;48.472;11.934;2024-01-15T06:28:01;17.47;;;1.60;;
4232;SDS011;2130;48.472;11.934;2024-01-15T06:30:31;18.90;;;2.30;;
4232;SDS011;2130;48.472;11.934;2024-01-15T06:32:59;17.73;;;2.17;;
4232;SDS011;2130;48.472;11.934;2024-01-15T06:35:28;22.00;;;2.13;;
4232;SDS011;2130;48.472;11.934;2024-01-15T06:37:56;20.23;;;2.27;;
4232;SDS011;2130;48.472;11.934;2024-01-15T06:40:25;16.83;;;1.70;;
4232;SDS011;2130;48.472;11.934;2024-01-15T06:42:53;16.80;;;1.73;;
4232;SDS011;2130;48.472;11.934;2024-01-15T06:45:22;16.50;;;1.93;;
4232;SDS011;2130;48.472;11.934;2024-01-15T06:47:50;17.93;;;2.00;;
4232;SDS011;2130;48.472;11.934;2024-01-15T06:50:18;17.33;;;1.90;;
4232;SDS011;2130;48.472;11.934;2024-01-15T06:52:47;19.00;;;2.30;;
4232;SDS011;2130;48.472;11.934;2024-01-15T06:55:15;17.63;;;1.53;;
4232;SDS011;2130;48.472;11.934;2024-01-15T06:57:44;18.03;;;2.30;;
4232;SDS011;2130;48.472;11.934;2024-01-15T07:00:12;17.43;;;2.40;;
4232;SDS011;2130;48.472;11.934;2024-01-15T07:02:41;16.53;;;1.30;;
4232;SDS011;2130;48.472;11.934;2024-01-15T07:05:09;17.80;;;2.00;;
4232;SDS011;2130;48.472;11.934;2024-01-15T07:07:40;18.30;;;1.57;;
4232;SDS011;2130;48.472;11.934;2024-01-15T07:10:10;19.23;;;2.97;;
4232;SDS011;2130;48.472;11.934;2024-01-15T07:12:41;22.90;;;3.00;;
4232;SDS011;2130;48.472;11.934;2024-01-15T07:15:11;20.10;;;2.33;;
4232;SDS011;2130;48.472;11.934;2024-01-15T07:17:39;17.63;;;2.10;;
4232;SDS011;2130;48.472;11.934;2024-01-15T07:20:07;20.20;;;2.13;;
4232;SDS011;2130;48.472;11.934;2024-01-15T07:22:37;19.17;;;2.50;;
4232;SDS011;2130;48.472;11.934;2024-01-15T07:25:05;18.63;;;2.03;;
4232;SDS011;2130;48.472;11.934;2024-01-15T07:27:34;17.67;;;2.10;;
4232;SDS011;2130;48.472;11.934;2024-01-15T07:30:03;17.63;;;1.80;;
4232;SDS011;2130;48.472;11.934;2024-01-15T07:32:35;16.87;;;1.97;;
4232;SDS011;2130;48.472;11.934;2024-01-15T07:35:05;17.80;;;1.87;;
4232;SDS011;2130;48.472;11.934;2024-01-15T07:37:34;16.93;;;2.17;;
4232;SDS011;2130;48.472;11.934;2024-01-15T07:40:02;18.33;;;2.13;;
4232;SDS011;2130;48.472;11.934;2024-01-15T07:42:33;17.53;;;2.03;;
4232;SDS011;2130;48.472;11.934;2024-01-15T07:45:02;17.73;;;2.30;;
4232;SDS011;2130;48.472;11.934;2024-01-15T07:47:30;20.17;;;2.33;;
4232;SDS011;2130;48.472;11.934;2024-01-15T07:50:01;17.37;;;2.30;;
4232;SDS011;2130;48.472;11.934;2024-01-15T07:52:32;18.67;;;2.17;;
4232;SDS011;2130;48.472;11.934;2024-01-15T07:55:00;17.83;;;2.17;;
4232;SDS011;2130;48.472;11.934;2024-01-15T07:57:32;20.93;;;3.37;;
4232;SDS011;2130;48.472;11.934;2024-01-15T08:00:00;16.47;;;1.60;;
4232;SDS011;2130;48.472;11.934;2024-01-15T08:02:31;18.23;;;1.80;;
4232;SDS011;2130;48.472;11.934;2024-01-15T08:05:05;17.40;;;2.20;;
4232;SDS011;2130;48.472;11.934;2024-01-15T08:07:33;17.43;;;1.60;;
4232;SDS011;2130;48.472;11.934;2024-01-15T08:10:01;16.93;;;1.83;;
4232;SDS011;2130;48.472;11.934;2024-01-15T08:12:29;21.07;;;1.33;;
4232;SDS011;2130;48.472;11.934;2024-01-15T08:14:58;17.70;;;2.00;;
4232;SDS011;2130;48.472;11.934;2024-01-15T08:17:29;16.40;;;1.37;;
4232;SDS011;2130;48.472;11.934;2024-01-15T08:20:00;16.63;;;1.60;;
4232;SDS011;2130;48.472;11.934;2024-01-15T08:22:39;15.00;;;1.50;;
4232;SDS011;2130;48.472;11.934;2024-01-15T08:25:07;16.13;;;1.63;;
4232;SDS011;2130;48.472;11.934;2024-01-15T08:27:40;16.13;;;1.80;;
4232;SDS011;2130;48.472;11.934;2024-01-15T08:30:11;15.40;;;1.70;;
4232;SDS011;2130;48.472;11.934;2024-01-15T08:32:40;16.73;;;1.40;;
4232;SDS011;2130;48.472;11.934;2024-01-15T08:35:09;16.00;;;1.70;;
4232;SDS011;2130;48.472;11.934;2024-01-15T08:37:39;15.90;;;1.50;;
4232;SDS011;2130;48.472;11.934;2024-01-15T08:40:08;16.20;;;1.60;;
4232;SDS011;2130;48.472;11.934;2024-01-15T08:42:37;17.20;;;1.60;;
4232;SDS011;2130;48.472;11.934;2024-01-15T08:45:09;17.00;;;1.90;;
4232;SDS011;2130;48.472;11.934;2024-01-15T08:47:37;15.63;;;1.50;;
4232;SDS011;2130;48.472;11.934;2024-01-15T08:50:06;15.90;;;1.20;;
4232;SDS011;2130;48.472;11.934;2024-01-15T08:52:36;16.00;;;1.57;;
4232;SDS011;2130;48.472;11.934;2024-01-15T08:55:06;17.93;;;1.87;;
4232;SDS011;2130;48.472;11.934;2024-01-15T08:57:35;15.70;;;1.47;;
4232;SDS011;2130;48.472;11.934;2024-01-15T09:00:05;16.20;;;1.87;;
4232;SDS011;2130;48.472;11.934;2024-01-15T09:02:35;14.83;;;1.23;;
4232;SDS011;2130;48.472;11.934;2024-01-15T09:05:04;15.57;;;1.80;;
4232;SDS011;2130;48.472;11.934;2024-01-15T09:07:33;16.50;;;1.47;;
4232;SDS011;2130;48.472;11.934;2024-01-15T09:10:01;15.00;;;1.50;;
4232;SDS011;2130;48.472;11.934;2024-01-15T09:12:33;15.77;;;1.80;;
4232;SDS011;2130;48.472;11.934;2024-01-15T09:15:05;15.60;;;1.40;;
4232;SDS011;2130;48.472;11.934;2024-01-15T09:17:35;15.47;;;1.90;;
4232;SDS011;2130;48.472;11.934;2024-01-15T09:20:03;14.43;;;1.63;;
4232;SDS011;2130;48.472;11.934;2024-01-15T09:22:33;14.40;;;1.20;;
4232;SDS011;2130;48.472;11.934;2024-01-15T09:25:01;15.50;;;1.60;;
4232;SDS011;2130;48.472;11.934;2024-01-15T09:27:30;16.53;;;1.40;;
4232;SDS011;2130;48.472;11.934;2024-01-15T09:30:03;15.03;;;1.57;;
4232;SDS011;2130;48.472;11.934;2024-01-15T09:32:32;14.80;;;1.27;;
4232;SDS011;2130;48.472;11.934;2024-01-15T09:35:04;14.13;;;1.87;;
4232;SDS011;2130;48.472;11.934;2024-01-15T09:37:33;14.70;;;1.57;;
4232;SDS011;2130;48.472;11.934;2024-01-15T09:40:13;13.53;;;1.20;;
4232;SDS011;2130;48.472;11.934;2024-01-15T09:42:43;13.40;;;1.53;;
4232;SDS011;2130;48.472;11.934;2024-01-15T09:45:26;13.87;;;1.10;;
4232;SDS011;2130;48.472;11.934;2024-01-15T09:47:55;14.90;;;1.43;;
4232;SDS011;2130;48.472;11.934;2024-01-15T09:50:25;13.77;;;1.43;;
4232;SDS011;2130;48.472;11.934;2024-01-15T09:52:53;12.90;;;1.47;;
4232;SDS011;2130;48.472;11.934;2024-01-15T09:55:26;14.67;;;1.43;;
4232;SDS011;2130;48.472;11.934;2024-01-15T09:57:56;14.30;;;1.20;;
4232;SDS011;2130;48.472;11.934;2024-01-15T10:00:24;17.73;;;1.70;;
4232;SDS011;2130;48.472;11.934;2024-01-15T10:02:54;14.83;;;1.40;;
4232;SDS011;2130;48.472;11.934;2024-01-15T10:05:22;14.00;;;1.23;;
4232;SDS011;2130;48.472;11.934;2024-01-15T10:07:53;13.50;;;1.37;;
4232;SDS011;2130;48.472;11.934;2024-01-15T10:10:22;14.90;;;1.20;;
4232;SDS011;2130;48.472;11.934;2024-01-15T10:12:53;13.90;;;1.43;;
4232;SDS011;2130;48.472;11.934;2024-01-15T10:15:22;12.80;;;1.20;;
4232;SDS011;2130;48.472;11.934;2024-01-15T10:18:15;14.40;;;1.07;;
4232;SDS011;2130;48.472;11.934;2024-01-15T10:20:44;14.80;;;1.30;;
4232;SDS011;2130;48.472;11.934;2024-01-15T10:23:14;13.60;;;1.00;;
4232;SDS011;2130;48.472;11.934;2024-01-15T10:25:44;13.40;;;1.00;;
4232;SDS011;2130;48.472;11.934;2024-01-15T10:28:13;14.70;;;1.20;;
4232;SDS011;2130;48.472;11.934;2024-01-15T10:30:44;13.30;;;1.00;;
4232;SDS011;2130;48.472;11.934;2024-01-15T10:33:13;13.80;;;1.13;;
4232;SDS011;2130;48.472;11.934;2024-01-15T10:35:42;15.17;;;1.30;;
4232;SDS011;2130;48.472;11.934;2024-01-15T10:38:10;13.00;;;1.00;;
4232;SDS011;2130;48.472;11.934;2024-01-15T10:40:38;12.27;;;1.10;;
4232;SDS011;2130;48.472;11.934;2024-01-15T10:43:06;12.63;;;1.13;;
4232;SDS011;2130;48.472;11.934;2024-01-15T10:45:35;13.53;;;1.10;;
4232;SDS011;2130;48.472;11.934;2024-01-15T10:48:03;14.20;;;1.20;;
4232;SDS011;2130;48.472;11.934;2024-01-15T10:50:33;13.70;;;1.57;;
4232;SDS011;2130;48.472;11.934;2024-01-15T10:53:02;13.60;;;1.60;;
4232;SDS011;2130;48.472;11.934;2024-01-15T10:55:31;13.10;;;1.10;;
4232;SDS011;2130;48.472;11.934;2024-01-15T10:58:00;13.67;;;1.00;;
4232;SDS011;2130;48.472;11.934;2024-01-15T11:00:34;13.17;;;1.53;;
4232;SDS011;2130;48.472;11.934;2024-01-15T11:03:05;12.50;;;1.30;;
4232;SDS011;2130;48.472;11.934;2024-01-15T11:05:35;13.03;;;1.30;;
4232;SDS011;2130;48.472;11.934;2024-01-15T11:08:05;13.10;;;1.07;;
4232;SDS011;2130;48.472;11.934;2024-01-15T11:10:38;14.70;;;1.97;;
4232;SDS011;2130;48.472;11.934;2024-01-15T11:13:13;13.63;;;1.80;;
4232;SDS011;2130;48.472;11.934;2024-01-15T11:15:56;14.90;;;1.73;;
4232;SDS011;2130;48.472;11.934;2024-01-15T11:18:28;14.00;;;1.90;;
4232;SDS011;2130;48.472;11.934;2024-01-15T11:23:53;13.57;;;1.27;;
4232;SDS011;2130;48.472;11.934;2024-01-15T11:26:28;14.30;;;1.70;;
4232;SDS011;2130;48.472;11.934;2024-01-15T11:28:57;13.43;;;2.00;;
4232;SDS011;2130;48.472;11.934;2024-01-15T11:40:39;15.03;;;2.00;;
4232;SDS011;2130;48.472;11.934;2024-01-15T11:43:09;13.90;;;1.80;;
4232;SDS011;2130;48.472;11.934;2024-01-15T11:45:40;14.03;;;1.83;;
4232;SDS011;2130;48.472;11.934;2024-01-15T11:48:09;19.03;;;1.90;;
4232;SDS011;2130;48.472;11.934;2024-01-15T11:50:40;13.50;;;1.37;;
4232;SDS011;2130;48.472;11.934;2024-01-15T11:53:13;14.97;;;1.97;;
4232;SDS011;2130;48.472;11.934;2024-01-15T11:55:56;14.20;;;1.73;;
4232;SDS011;2130;48.472;11.934;2024-01-15T11:58:29;16.90;;;1.93;;
4232;SDS011;2130;48.472;11.934;2024-01-15T12:00:58;14.20;;;1.87;;
4232;SDS011;2130;48.472;11.934;2024-01-15T12:03:26;13.27;;;2.03;;
4232;SDS011;2130;48.472;11.934;2024-01-15T12:05:55;12.73;;;1.20;;
4232;SDS011;2130;48.472;11.934;2024-01-15T12:08:23;14.43;;;1.53;;
4232;SDS011;2130;48.472;11.934;2024-01-15T12:10:57;15.27;;;1.40;;
4232;SDS011;2130;48.472;11.934;2024-01-15T12:13:25;14.67;;;1.77;;
4232;SDS011;2130;48.472;11.934;2024-01-15T12:15:55;14.40;;;1.93;;
4232;SDS011;2130;48.472;11.934;2024-01-15T12:18:23;12.30;;;1.73;;
4232;SDS011;2130;48.472;11.934;2024-01-15T12:20:53;15.00;;;2.03;;
4232;SDS011;2130;48.472;11.934;2024-01-15T12:23:21;12.60;;;1.17;;
4232;SDS011;2130;48.472;11.934;2024-01-15T12:25:52;13.73;;;1.47;;
4232;SDS011;2130;48.472;11.934;2024-01-15T12:28:21;13.90;;;1.40;;
4232;SDS011;2130;48.472;11.934;2024-01-15T12:30:50;13.70;;;1.17;;
4232;SDS011;2130;48.472;11.934;2024-01-15T12:33:18;13.67;;;1.40;;
4232;SDS011;2130;48.472;11.934;2024-01-15T12:35:47;13.57;;;1.47;;
4232;SDS011;2130;48.472;11.934;2024-01-15T12:38:18;13.20;;;1.50;;
4232;SDS011;2130;48.472;11.934;2024-01-15T12:40:46;13.63;;;1.40;;
4232;SDS011;2130;48.472;11.934;2024-01-15T12:43:15;14.00;;;1.60;;
4232;SDS011;2130;48.472;11.934;2024-01-15T12:45:47;13.83;;;1.60;;
4232;SDS011;2130;48.472;11.934;2024-01-15T12:48:16;15.00;;;1.90;;
4232;SDS011;2130;48.472;11.934;2024-01-15T12:50:45;13.47;;;1.90;;
4232;SDS011;2130;48.472;11.934;2024-01-15T12:53:14;13.00;;;1.57;;
4232;SDS011;2130;48.472;11.934;2024-01-15T12:55:43;13.97;;;1.60;;
4232;SDS011;2130;48.472;11.934;2024-01-15T12:58:12;13.87;;;1.77;;
4232;SDS011;2130;48.472;11.934;2024-01-15T13:00:40;13.47;;;1.23;;
4232;SDS011;2130;48.472;11.934;2024-01-15T13:03:23;14.03;;;1.70;;
4232;SDS011;2130;48.472;11.934;2024-01-15T13:05:54;13.27;;;1.63;;
4232;SDS011;2130;48.472;11.934;2024-01-15T13:08:23;13.60;;;1.87;;
4232;SDS011;2130;48.472;11.934;2024-01-15T13:10:53;13.80;;;1.60;;
4232;SDS011;2130;48.472;11.934;2024-01-15T13:13:24;17.97;;;2.07;;
4232;SDS011;2130;48.472;11.934;2024-01-15T13:15:53;15.40;;;1.77;;
4232;SDS011;2130;48.472;11.934;2024-01-15T13:18:22;14.03;;;1.70;;
4232;SDS011;2130;48.472;11.934;2024-01-15T13:20:50;14.10;;;1.77;;
4232;SDS011;2130;48.472;11.934;2024-01-15T13:23:19;14.87;;;1.40;;
4232;SDS011;2130;48.472;11.934;2024-01-15T13:25:47;14.50;;;1.63;;
4232;SDS011;2130;48.472;11.934;2024-01-15T13:28:15;15.43;;;2.17;;
4232;SDS011;2130;48.472;11.934;2024-01-15T13:30:43;14.03;;;1.67;;
4232;SDS011;2130;48.472;11.934;2024-01-15T13:33:11;15.80;;;1.47;;
4232;SDS011;2130;48.472;11.934;2024-01-15T13:35:41;15.00;;;2.00;;
4232;SDS011;2130;48.472;11.934;2024-01-15T13:38:09;13.87;;;1.67;;
4232;SDS011;2130;48.472;11.934;2024-01-15T13:40:38;12.97;;;1.20;;
4232;SDS011;2130;48.472;11.934;2024-01-15T13:43:06;13.80;;;1.40;;
4232;SDS011;2130;48.472;11.934;2024-01-15T13:45:35;13.70;;;1.40;;
4232;SDS011;2130;48.472;11.934;2024-01-15T13:48:04;13.60;;;1.43;;
4232;SDS011;2130;48.472;11.934;2024-01-15T13:50:34;13.53;;;1.87;;
4232;SDS011;2130;48.472;11.934;2024-01-15T13:53:05;13.90;;;1.83;;
4232;SDS011;2130;48.472;11.934;2024-01-15T13:55:33;14.00;;;1.50;;
4232;SDS011;2130;48.472;11.934;2024-01-15T13:58:04;14.50;;;1.47;;
4232;SDS011;2130;48.472;11.934;2024-01-15T14:00:35;13.77;;;1.43;;
4232;SDS011;2130;48.472;11.934;2024-01-15T14:03:05;13.20;;;1.30;;
4232;SDS011;2130;48.472;11.934;2024-01-15T14:05:33;18.00;;;2.00;;
4232;SDS011;2130;48.472;11.934;2024-01-15T14:08:01;14.60;;;1.40;;
4232;SDS011;2130;48.472;11.934;2024-01-15T14:10:31;13.30;;;1.40;;
4232;SDS011;2130;48.472;11.934;2024-01-15T14:13:02;13.47;;;1.63;;
4232;SDS011;2130;48.472;11.934;2024-01-15T14:15:31;13.93;;;1.20;;
4232;SDS011;2130;48.472;11.934;2024-01-15T14:17:59;13.83;;;1.67;;
4232;SDS011;2130;48.472;11.934;2024-01-15T14:20:27;14.93;;;1.60;;
4232;SDS011;2130;48.472;11.934;2024-01-15T14:22:55;13.03;;;1.10;;
4232;SDS011;2130;48.472;11.934;2024-01-15T14:25:24;13.63;;;1.27;;
4232;SDS011;2130;48.472;11.934;2024-01-15T14:27:57;15.00;;;1.77;;
4232;SDS011;2130;48.472;11.934;2024-01-15T14:30:26;13.83;;;1.60;;
4232;SDS011;2130;48.472;11.934;2024-01-15T14:32:54;16.33;;;1.77;;
4232;SDS011;2130;48.472;11.934;2024-01-15T14:35:22;15.50;;;1.73;;
4232;SDS011;2130;48.472;11.934;2024-01-15T14:37:50;13.97;;;1.60;;
4232;SDS011;2130;48.472;11.934;2024-01-15T14:40:19;13.13;;;1.37;;
4232;SDS011;2130;48.472;11.934;2024-01-15T14:42:47;15.40;;;1.90;;
4232;SDS011;2130;48.472;11.934;2024-01-15T14:45:17;14.77;;;1.90;;
4232;SDS011;2130;48.472;11.934;2024-01-15T14:47:45;21.00;;;2.27;;
4232;SDS011;2130;48.472;11.934;2024-01-15T14:50:13;15.43;;;1.70;;
4232;SDS011;2130;48.472;11.934;2024-01-15T14:52:41;16.63;;;1.70;;
4232;SDS011;2130;48.472;11.934;2024-01-15T14:55:11;13.93;;;1.50;;
4232;SDS011;2130;48.472;11.934;2024-01-15T14:57:40;13.90;;;1.37;;
4232;SDS011;2130;48.472;11.934;2024-01-15T15:00:08;14.27;;;1.30;;
4232;SDS011;2130;48.472;11.934;2024-01-15T15:02:38;15.73;;;1.67;;
4232;SDS011;2130;48.472;11.934;2024-01-15T15:05:06;15.43;;;1.80;;
4232;SDS011;2130;48.472;11.934;2024-01-15T15:07:35;15.97;;;1.77;;
4232;SDS011;2130;48.472;11.934;2024-01-15T15:10:04;15.20;;;1.33;;
4232;SDS011;2130;48.472;11.934;2024-01-15T15:12:33;16.27;;;1.63;;